Time;durP1;ratioP1;P1;durP2;ratioP2;P2;SDS_P1;SDS_P2;PMS_P1;PMS_P2;Temp;Humidity;BMP_temperature;BMP_pressure;BME280_temperature;BME280_humidity;BME280_pressure;Samples;Min_cycle;Max_cycle;Signal;HPM_P1;HPM_P2
2023/12/08 00:00:22;;;;;;;106.40;43.42;;;;;;;;;;5015357;28;20034;-63
2023/12/08 00:02:47;;;;;;;102.20;43.45;;;;;;;;;;4998347;28;20093;-63
2023/12/08 00:05:13;;;;;;;107.75;44.50;;;;;;;;;;5015339;28;20034;-63
2023/12/08 00:07:40;;;;;;;102.68;43.53;;;;;;;;;;4981395;28;20041;-63
2023/12/08 00:10:05;;;;;;;115.28;45.63;;;;;;;;;;5015560;28;20361;-62
2023/12/08 00:12:43;;;;;;;107.47;46.08;;;;;;;;;;5015137;28;20040;-62
2023/12/08 00:15:09;;;;;;;108.15;44.72;;;;;;;;;;5014641;28;20064;-59
2023/12/08 00:17:34;;;;;;;100.93;41.65;;;;;;;;;;5026408;23;20081;-59
2023/12/08 00:20:00;;;;;;;105.82;43.30;;;;;;;;;;4995945;28;20061;-62
2023/12/08 00:22:27;;;;;;;101.43;40.70;;;;;;;;;;5015092;28;20026;-63
2023/12/08 00:24:52;;;;;;;103.18;42.10;;;;;;;;;;5015030;28;20480;-63
2023/12/08 00:27:18;;;;;;;95.95;42.38;;;;;;;;;;5014804;28;20030;-63
2023/12/08 00:29:44;;;;;;;98.55;41.35;;;;;;;;;;4997438;28;20450;-62
2023/12/08 00:32:09;;;;;;;93.20;38.72;;;;;;;;;;5015213;28;20037;-62
2023/12/08 00:34:34;;;;;;;93.10;39.00;;;;;;;;;;5015252;28;20061;-62
2023/12/08 00:37:00;;;;;;;98.10;40.65;;;;;;;;;;5014649;28;20029;-62
2023/12/08 00:39:25;;;;;;;92.70;39.58;;;;;;;;;;5014864;28;20084;-62
2023/12/08 00:41:50;;;;;;;97.40;40.20;;;;;;;;;;5014537;28;20491;-62
2023/12/08 00:44:16;;;;;;;99.75;41.10;;;;;;;;;;5014721;28;20076;-62
2023/12/08 00:46:41;;;;;;;94.07;39.85;;;;;;;;;;5015021;28;20030;-62
2023/12/08 00:49:07;;;;;;;95.55;41.03;;;;;;;;;;5014980;28;20096;-62
2023/12/08 00:51:32;;;;;;;98.60;42.03;;;;;;;;;;4997104;28;20034;-62
2023/12/08 00:53:57;;;;;;;106.53;44.53;;;;;;;;;;5015103;28;20034;-62
2023/12/08 00:56:23;;;;;;;102.78;43.95;;;;;;;;;;5014715;28;20117;-62
2023/12/08 00:58:48;;;;;;;111.38;45.58;;;;;;;;;;5014877;28;20021;-62
2023/12/08 01:01:16;;;;;;;104.15;44.80;;;;;;;;;;5014485;28;20099;-62
2023/12/08 01:03:41;;;;;;;100.07;42.38;;;;;;;;;;5014447;28;20034;-62
2023/12/08 01:06:06;;;;;;;97.72;41.30;;;;;;;;;;5014508;28;20083;-62
2023/12/08 01:08:32;;;;;;;91.15;40.15;;;;;;;;;;5014433;28;20117;-62
2023/12/08 01:10:57;;;;;;;99.72;41.17;;;;;;;;;;5014256;28;20089;-62
2023/12/08 01:13:23;;;;;;;105.55;40.22;;;;;;;;;;5014640;28;20026;-62
2023/12/08 01:15:48;;;;;;;100.82;41.45;;;;;;;;;;5013826;28;20038;-62
2023/12/08 01:18:14;;;;;;;102.82;42.22;;;;;;;;;;5014199;28;20037;-62
2023/12/08 01:20:39;;;;;;;99.97;40.78;;;;;;;;;;4997176;28;20553;-63
2023/12/08 01:23:05;;;;;;;95.43;41.80;;;;;;;;;;5013099;28;20030;-63
2023/12/08 01:25:30;;;;;;;102.10;41.65;;;;;;;;;;5014567;28;20045;-63
2023/12/08 01:27:55;;;;;;;98.03;41.72;;;;;;;;;;4997216;28;20140;-63
2023/12/08 01:30:21;;;;;;;97.40;40.15;;;;;;;;;;5014097;28;20037;-63
2023/12/08 01:32:46;;;;;;;92.70;40.38;;;;;;;;;;4997133;28;20014;-63
2023/12/08 01:35:11;;;;;;;95.60;41.47;;;;;;;;;;5014280;28;20036;-63
2023/12/08 01:37:37;;;;;;;98.72;41.38;;;;;;;;;;5013796;28;20030;-63
2023/12/08 01:40:03;;;;;;;88.13;38.08;;;;;;;;;;5013851;28;20073;-63
2023/12/08 01:42:28;;;;;;;96.72;40.13;;;;;;;;;;5014163;28;20113;-63
2023/12/08 01:44:54;;;;;;;92.55;40.47;;;;;;;;;;5013988;28;20104;-63
2023/12/08 01:47:19;;;;;;;93.28;39.40;;;;;;;;;;5013903;28;20180;-62
2023/12/08 01:49:45;;;;;;;91.18;39.88;;;;;;;;;;5014101;28;20026;-62
2023/12/08 01:52:13;;;;;;;88.25;38.97;;;;;;;;;;5014199;28;20057;-62
2023/12/08 01:54:39;;;;;;;85.05;37.38;;;;;;;;;;4979885;28;20037;-62
2023/12/08 01:57:04;;;;;;;83.35;37.35;;;;;;;;;;5014194;28;20040;-62
2023/12/08 01:59:30;;;;;;;79.13;36.58;;;;;;;;;;5013668;28;20018;-62
2023/12/08 02:01:55;;;;;;;80.82;35.80;;;;;;;;;;5013515;28;20030;-62
2023/12/08 02:04:21;;;;;;;81.05;37.22;;;;;;;;;;5013341;28;20104;-62
2023/12/08 02:06:47;;;;;;;80.53;37.53;;;;;;;;;;5013667;28;20471;-62
2023/12/08 02:09:12;;;;;;;78.78;36.75;;;;;;;;;;5013240;28;20492;-63
2023/12/08 02:11:38;;;;;;;84.72;38.25;;;;;;;;;;5013960;28;20384;-62
2023/12/08 02:14:03;;;;;;;78.60;36.90;;;;;;;;;;4996332;28;20088;-62
2023/12/08 02:16:50;;;;;;;81.80;37.28;;;;;;;;;;5013439;28;20117;-62
2023/12/08 02:22:03;;;;;;;75.07;36.10;;;;;;;;;;4987266;28;20050;-58
2023/12/08 02:24:29;;;;;;;76.28;36.33;;;;;;;;;;4983229;28;20452;-58
2023/12/08 02:26:54;;;;;;;84.05;37.40;;;;;;;;;;4954991;28;20065;-58
2023/12/08 02:29:19;;;;;;;73.43;36.30;;;;;;;;;;4958865;29;20015;-58
2023/12/08 02:31:53;;;;;;;76.85;36.13;;;;;;;;;;4958119;29;20065;-58
2023/12/08 02:34:19;;;;;;;75.10;35.47;;;;;;;;;;4958731;29;20030;-60
2023/12/08 02:36:45;;;;;;;77.50;36.67;;;;;;;;;;4942101;29;20062;-60
2023/12/08 02:39:12;;;;;;;76.15;34.72;;;;;;;;;;4958890;29;20023;-61
2023/12/08 02:41:38;;;;;;;82.40;36.50;;;;;;;;;;4958824;29;20043;-61
2023/12/08 02:44:03;;;;;;;76.88;36.25;;;;;;;;;;4957299;29;20037;-58
2023/12/08 02:46:29;;;;;;;87.55;39.25;;;;;;;;;;4958775;29;20036;-58
2023/12/08 02:48:54;;;;;;;91.55;41.38;;;;;;;;;;4959280;29;20023;-58
2023/12/08 02:51:19;;;;;;;88.25;40.10;;;;;;;;;;4958122;29;20039;-58
2023/12/08 02:53:45;;;;;;;88.05;38.67;;;;;;;;;;4958769;28;20114;-58
2023/12/08 02:56:10;;;;;;;80.30;37.08;;;;;;;;;;4958201;29;20035;-58
2023/12/08 02:58:36;;;;;;;74.07;35.53;;;;;;;;;;4958224;29;20027;-58
2023/12/08 03:01:01;;;;;;;77.35;36.05;;;;;;;;;;4958565;29;20039;-58
2023/12/08 03:03:26;;;;;;;75.07;35.85;;;;;;;;;;4958608;29;20066;-58
2023/12/08 03:05:52;;;;;;;70.53;34.33;;;;;;;;;;4958485;29;20042;-58
2023/12/08 03:08:17;;;;;;;75.68;35.22;;;;;;;;;;4958196;29;20027;-58
2023/12/08 03:10:43;;;;;;;71.45;34.72;;;;;;;;;;4956629;29;20425;-59
2023/12/08 03:13:08;;;;;;;78.63;36.22;;;;;;;;;;4958214;29;20024;-58
2023/12/08 03:15:34;;;;;;;76.40;34.97;;;;;;;;;;4958254;29;20020;-58
2023/12/08 03:17:59;;;;;;;76.75;34.97;;;;;;;;;;4958534;29;20025;-58
2023/12/08 03:20:25;;;;;;;72.70;34.75;;;;;;;;;;4964077;28;20469;-59
2023/12/08 03:22:50;;;;;;;77.15;34.90;;;;;;;;;;4977385;28;20054;-58
2023/12/08 03:25:15;;;;;;;75.20;34.53;;;;;;;;;;4976981;28;20481;-58
2023/12/08 03:27:41;;;;;;;75.35;34.90;;;;;;;;;;4977797;28;20035;-58
2023/12/08 03:30:06;;;;;;;78.43;35.13;;;;;;;;;;4977146;28;20031;-58
2023/12/08 03:32:32;;;;;;;80.70;34.60;;;;;;;;;;4976842;28;20023;-59
2023/12/08 03:34:58;;;;;;;74.18;32.80;;;;;;;;;;4976727;28;20525;-59
2023/12/08 03:37:23;;;;;;;72.03;33.05;;;;;;;;;;4977298;28;20462;-59
2023/12/08 03:39:49;;;;;;;68.28;30.95;;;;;;;;;;4976239;28;20058;-59
2023/12/08 03:42:14;;;;;;;73.93;30.52;;;;;;;;;;4977174;28;20103;-59
2023/12/08 03:44:39;;;;;;;69.68;30.67;;;;;;;;;;4977293;28;20457;-59
2023/12/08 03:47:05;;;;;;;67.97;31.63;;;;;;;;;;4975555;28;20043;-59
2023/12/08 03:49:30;;;;;;;69.88;30.92;;;;;;;;;;4976707;28;20034;-58
2023/12/08 03:51:56;;;;;;;68.40;30.00;;;;;;;;;;4976770;28;20023;-59
2023/12/08 03:54:22;;;;;;;65.55;29.77;;;;;;;;;;4975179;28;20030;-59
2023/12/08 03:56:47;;;;;;;69.90;29.52;;;;;;;;;;4977277;28;20034;-59
2023/12/08 03:59:13;;;;;;;75.18;30.00;;;;;;;;;;4976960;28;20093;-59
2023/12/08 04:01:38;;;;;;;62.90;28.55;;;;;;;;;;4976606;28;20062;-58
2023/12/08 04:04:04;;;;;;;65.15;29.33;;;;;;;;;;4975072;28;20039;-57
2023/12/08 04:06:29;;;;;;;61.38;28.17;;;;;;;;;;4976418;28;20030;-57
2023/12/08 04:08:54;;;;;;;65.40;28.02;;;;;;;;;;4976166;28;20064;-57
2023/12/08 04:11:20;;;;;;;60.35;27.25;;;;;;;;;;4976558;28;20458;-59
2023/12/08 04:13:45;;;;;;;58.83;26.67;;;;;;;;;;4974683;28;20106;-59
2023/12/08 04:16:11;;;;;;;63.45;26.88;;;;;;;;;;4976365;28;20015;-59
2023/12/08 04:18:36;;;;;;;55.65;26.73;;;;;;;;;;4975973;28;20436;-59
2023/12/08 04:21:02;;;;;;;55.13;26.52;;;;;;;;;;4976019;28;20055;-60
2023/12/08 04:23:28;;;;;;;51.45;25.23;;;;;;;;;;4976425;28;20089;-60
2023/12/08 04:25:53;;;;;;;52.55;25.98;;;;;;;;;;4976326;28;20126;-60
2023/12/08 04:28:18;;;;;;;48.38;25.20;;;;;;;;;;4976210;28;20117;-60
2023/12/08 04:30:44;;;;;;;50.15;24.58;;;;;;;;;;4974595;28;20067;-59
2023/12/08 04:33:09;;;;;;;46.00;24.83;;;;;;;;;;4975268;28;20018;-58
2023/12/08 04:35:35;;;;;;;44.83;23.33;;;;;;;;;;4975920;28;20027;-58
2023/12/08 04:38:01;;;;;;;46.33;23.77;;;;;;;;;;4975804;28;20030;-58
2023/12/08 04:40:26;;;;;;;46.28;25.08;;;;;;;;;;4976021;28;20429;-62
2023/12/08 04:42:52;;;;;;;45.60;25.13;;;;;;;;;;4975181;28;20039;-58
2023/12/08 04:45:17;;;;;;;50.40;25.25;;;;;;;;;;4974389;28;20062;-62
2023/12/08 04:47:42;;;;;;;44.05;23.98;;;;;;;;;;4975588;28;20030;-62
2023/12/08 04:50:08;;;;;;;46.22;25.00;;;;;;;;;;4972810;28;20030;-62
2023/12/08 04:52:33;;;;;;;43.80;23.92;;;;;;;;;;4973388;28;20027;-62
2023/12/08 04:55:01;;;;;;;43.53;24.35;;;;;;;;;;4971040;28;20085;-62
2023/12/08 04:57:26;;;;;;;42.05;24.00;;;;;;;;;;4973087;28;20460;-62
2023/12/08 04:59:52;;;;;;;51.70;27.23;;;;;;;;;;4973184;28;20113;-62
2023/12/08 05:02:17;;;;;;;49.85;26.52;;;;;;;;;;4974232;28;20021;-62
2023/12/08 05:04:43;;;;;;;54.13;28.10;;;;;;;;;;4974258;28;20485;-60
2023/12/08 05:07:08;;;;;;;48.83;26.15;;;;;;;;;;4973962;28;20473;-63
2023/12/08 05:09:33;;;;;;;53.05;26.98;;;;;;;;;;4973875;28;20422;-62
2023/12/08 05:11:59;;;;;;;55.20;29.42;;;;;;;;;;4975829;28;20034;-63
2023/12/08 05:14:24;;;;;;;55.35;28.13;;;;;;;;;;4975244;28;20034;-63
2023/12/08 05:16:49;;;;;;;55.58;29.33;;;;;;;;;;4975609;28;20030;-63
2023/12/08 05:19:16;;;;;;;58.85;30.90;;;;;;;;;;4973697;28;20041;-63
2023/12/08 05:21:42;;;;;;;58.35;30.40;;;;;;;;;;4958079;28;20064;-63
2023/12/08 05:24:07;;;;;;;52.35;29.58;;;;;;;;;;4975316;28;20027;-63
2023/12/08 05:26:33;;;;;;;56.25;29.83;;;;;;;;;;4975301;28;20035;-63
2023/12/08 05:28:58;;;;;;;55.25;29.65;;;;;;;;;;4975103;28;20062;-63
2023/12/08 05:31:23;;;;;;;57.45;29.02;;;;;;;;;;4975381;28;20031;-63
2023/12/08 05:33:49;;;;;;;55.60;28.85;;;;;;;;;;4974917;28;20065;-63
2023/12/08 05:36:14;;;;;;;56.85;30.80;;;;;;;;;;4975380;28;20035;-63
2023/12/08 05:38:40;;;;;;;62.00;32.60;;;;;;;;;;4975518;28;20027;-63
2023/12/08 05:41:05;;;;;;;56.28;30.65;;;;;;;;;;4975234;28;20046;-63
2023/12/08 05:43:30;;;;;;;59.78;31.70;;;;;;;;;;4974930;28;20157;-63
2023/12/08 05:45:56;;;;;;;60.22;31.30;;;;;;;;;;4975417;28;20121;-63
2023/12/08 05:48:22;;;;;;;54.42;29.73;;;;;;;;;;4975037;28;20107;-63
2023/12/08 05:50:48;;;;;;;56.88;29.05;;;;;;;;;;4975392;28;20380;-63
2023/12/08 05:53:13;;;;;;;60.35;30.58;;;;;;;;;;4974624;28;20101;-63
2023/12/08 05:55:39;;;;;;;53.38;28.13;;;;;;;;;;4975456;28;20031;-63
2023/12/08 05:58:04;;;;;;;61.83;29.80;;;;;;;;;;4974742;28;20066;-63
2023/12/08 06:00:30;;;;;;;61.03;30.55;;;;;;;;;;4975079;28;20038;-63
2023/12/08 06:02:55;;;;;;;61.53;31.80;;;;;;;;;;4978012;28;20030;-63
2023/12/08 06:05:21;;;;;;;58.33;30.58;;;;;;;;;;4978920;28;20452;-62
2023/12/08 06:07:46;;;;;;;63.90;30.85;;;;;;;;;;4979053;28;20026;-63
2023/12/08 06:10:11;;;;;;;63.83;31.23;;;;;;;;;;4978554;28;20376;-63
2023/12/08 06:12:37;;;;;;;61.65;30.95;;;;;;;;;;4978307;28;20026;-62
2023/12/08 06:15:03;;;;;;;63.90;31.92;;;;;;;;;;4978964;28;20039;-62
2023/12/08 06:17:28;;;;;;;61.58;29.60;;;;;;;;;;4978187;28;20030;-62
2023/12/08 06:19:54;;;;;;;64.97;30.95;;;;;;;;;;4977481;28;20565;-62
2023/12/08 06:22:19;;;;;;;54.00;28.73;;;;;;;;;;4976583;28;20050;-62
2023/12/08 06:24:44;;;;;;;56.83;28.15;;;;;;;;;;4975145;28;20113;-62
2023/12/08 06:27:10;;;;;;;49.42;25.80;;;;;;;;;;4976129;28;20054;-63
2023/12/08 06:29:35;;;;;;;50.20;24.95;;;;;;;;;;4976023;28;20369;-62
2023/12/08 06:32:00;;;;;;;48.45;24.73;;;;;;;;;;4977035;28;20023;-62
2023/12/08 06:34:26;;;;;;;48.42;25.02;;;;;;;;;;4978015;28;20108;-62
2023/12/08 06:36:51;;;;;;;49.58;26.40;;;;;;;;;;4977923;28;20022;-62
2023/12/08 06:39:17;;;;;;;46.42;25.83;;;;;;;;;;4978330;28;20178;-62
2023/12/08 06:41:43;;;;;;;54.22;27.67;;;;;;;;;;4977613;28;20492;-62
2023/12/08 06:44:09;;;;;;;51.72;27.27;;;;;;;;;;4977686;28;20027;-63
2023/12/08 06:46:34;;;;;;;45.72;25.10;;;;;;;;;;4976560;28;20465;-63
2023/12/08 06:49:01;;;;;;;44.70;25.08;;;;;;;;;;4977889;28;20038;-62
2023/12/08 06:51:26;;;;;;;49.70;24.73;;;;;;;;;;4976888;28;20117;-62
2023/12/08 06:53:52;;;;;;;44.20;23.70;;;;;;;;;;4976269;28;20119;-62
2023/12/08 06:56:17;;;;;;;42.17;23.63;;;;;;;;;;4976303;28;20031;-62
2023/12/08 06:58:43;;;;;;;44.33;24.08;;;;;;;;;;4977564;28;20030;-62
2023/12/08 07:01:09;;;;;;;39.90;21.95;;;;;;;;;;4977410;28;20544;-62
2023/12/08 07:03:34;;;;;;;43.97;24.00;;;;;;;;;;4977394;28;20117;-62
2023/12/08 07:06:00;;;;;;;42.90;24.27;;;;;;;;;;4977883;28;20110;-58
2023/12/08 07:08:25;;;;;;;46.38;26.65;;;;;;;;;;4977895;28;20034;-58
2023/12/08 07:10:50;;;;;;;46.08;25.10;;;;;;;;;;4977169;28;20069;-58
2023/12/08 07:13:16;;;;;;;48.20;25.10;;;;;;;;;;4977072;28;20031;-58
2023/12/08 07:15:41;;;;;;;47.22;24.63;;;;;;;;;;4977699;28;20031;-58
2023/12/08 07:18:06;;;;;;;51.63;23.77;;;;;;;;;;4975969;28;20034;-58
2023/12/08 07:20:32;;;;;;;56.20;27.90;;;;;;;;;;4977007;28;20497;-58
2023/12/08 07:22:57;;;;;;;58.30;28.92;;;;;;;;;;4977027;28;20477;-58
2023/12/08 07:25:22;;;;;;;63.08;31.50;;;;;;;;;;4977019;28;20523;-58
2023/12/08 07:27:48;;;;;;;58.15;28.08;;;;;;;;;;4976112;28;20477;-58
2023/12/08 07:30:13;;;;;;;63.17;30.80;;;;;;;;;;4977072;28;20043;-58
2023/12/08 07:32:38;;;;;;;64.30;29.42;;;;;;;;;;4959539;28;20065;-58
2023/12/08 07:35:04;;;;;;;66.10;32.35;;;;;;;;;;4976807;28;20035;-58
2023/12/08 07:37:29;;;;;;;57.50;29.33;;;;;;;;;;4977315;28;20133;-58
2023/12/08 07:39:55;;;;;;;48.13;25.33;;;;;;;;;;4976112;28;20034;-58
2023/12/08 07:42:21;;;;;;;38.05;19.90;;;;;;;;;;4976945;28;20039;-58
2023/12/08 07:44:47;;;;;;;41.13;23.73;;;;;;;;;;4977169;28;20023;-58
2023/12/08 07:47:12;;;;;;;40.10;21.77;;;;;;;;;;4975358;28;20039;-58
2023/12/08 07:49:38;;;;;;;35.40;20.77;;;;;;;;;;4976715;28;20031;-58
2023/12/08 07:52:03;;;;;;;37.10;20.77;;;;;;;;;;4976475;28;20029;-58
2023/12/08 07:54:32;;;;;;;31.35;18.58;;;;;;;;;;4976721;28;20461;-58
2023/12/08 07:56:57;;;;;;;55.53;27.70;;;;;;;;;;4976374;28;20050;-58
2023/12/08 07:59:23;;;;;;;34.53;18.25;;;;;;;;;;4976365;28;20462;-58
2023/12/08 08:01:48;;;;;;;30.35;17.98;;;;;;;;;;4976559;28;20037;-58
2023/12/08 08:04:13;;;;;;;37.33;21.58;;;;;;;;;;4991768;28;20042;-58
2023/12/08 08:06:39;;;;;;;30.67;18.13;;;;;;;;;;4976455;28;20041;-58
2023/12/08 08:09:04;;;;;;;30.05;17.38;;;;;;;;;;4976064;28;20042;-58
2023/12/08 08:11:30;;;;;;;32.10;18.25;;;;;;;;;;4975181;28;20027;-58
2023/12/08 08:13:56;;;;;;;24.13;15.60;;;;;;;;;;4974957;28;20066;-58
2023/12/08 08:16:22;;;;;;;32.92;19.58;;;;;;;;;;4976035;28;20453;-58
2023/12/08 08:18:47;;;;;;;25.67;15.63;;;;;;;;;;4975997;28;20034;-58
2023/12/08 08:21:12;;;;;;;29.48;18.00;;;;;;;;;;4974734;28;20065;-58
2023/12/08 08:23:38;;;;;;;29.23;17.80;;;;;;;;;;4975995;28;20035;-58
2023/12/08 08:26:04;;;;;;;31.58;20.10;;;;;;;;;;4975783;28;20031;-58
2023/12/08 08:28:29;;;;;;;31.05;17.38;;;;;;;;;;4976045;28;20039;-58
2023/12/08 08:30:54;;;;;;;30.30;17.77;;;;;;;;;;4974593;28;20037;-58
2023/12/08 08:33:20;;;;;;;32.45;17.17;;;;;;;;;;4976290;28;20023;-59
2023/12/08 08:35:45;;;;;;;32.17;18.98;;;;;;;;;;4976257;28;20062;-58
2023/12/08 08:38:11;;;;;;;35.40;20.27;;;;;;;;;;4975958;28;20058;-58
2023/12/08 08:40:36;;;;;;;43.08;23.88;;;;;;;;;;4976128;28;20046;-58
2023/12/08 08:43:02;;;;;;;41.78;20.38;;;;;;;;;;4974461;28;20035;-58
2023/12/08 08:45:27;;;;;;;38.03;20.65;;;;;;;;;;4974308;28;20043;-58
2023/12/08 08:47:52;;;;;;;38.40;19.95;;;;;;;;;;4975497;28;20030;-58
2023/12/08 08:50:18;;;;;;;32.40;19.27;;;;;;;;;;4975438;28;20098;-58
2023/12/08 08:52:43;;;;;;;29.33;17.02;;;;;;;;;;4975416;28;20425;-58
2023/12/08 08:55:10;;;;;;;26.27;15.60;;;;;;;;;;4975351;28;20596;-58
2023/12/08 08:57:35;;;;;;;29.05;16.63;;;;;;;;;;4975363;28;20015;-58
2023/12/08 09:00:01;;;;;;;28.30;15.48;;;;;;;;;;4975548;28;20030;-58
2023/12/08 09:02:26;;;;;;;29.95;16.38;;;;;;;;;;4975249;28;20034;-58
2023/12/08 09:04:51;;;;;;;24.77;14.32;;;;;;;;;;4975517;28;20073;-58
2023/12/08 09:07:17;;;;;;;28.25;16.58;;;;;;;;;;4975432;28;20033;-58
2023/12/08 09:09:42;;;;;;;35.45;19.67;;;;;;;;;;4975636;28;20113;-58
2023/12/08 09:12:08;;;;;;;35.60;17.85;;;;;;;;;;4975091;28;20106;-58
2023/12/08 09:14:33;;;;;;;38.60;21.05;;;;;;;;;;4975368;28;20433;-58
2023/12/08 09:17:05;;;;;;;32.90;17.70;;;;;;;;;;4975017;28;20030;-58
2023/12/08 09:19:30;;;;;;;33.88;18.50;;;;;;;;;;4975266;28;20031;-58
2023/12/08 09:21:56;;;;;;;31.05;16.98;;;;;;;;;;4974854;28;20076;-58
2023/12/08 09:24:21;;;;;;;30.98;17.42;;;;;;;;;;4975479;28;20034;-58
2023/12/08 09:26:47;;;;;;;29.67;16.60;;;;;;;;;;4974032;28;20074;-58
2023/12/08 09:29:13;;;;;;;30.95;17.67;;;;;;;;;;4975227;28;20046;-61
2023/12/08 09:31:38;;;;;;;33.03;18.90;;;;;;;;;;4974767;28;20488;-58
2023/12/08 09:34:03;;;;;;;36.03;19.33;;;;;;;;;;4974843;28;20057;-58
2023/12/08 09:36:29;;;;;;;38.88;19.20;;;;;;;;;;4977679;28;20054;-58
2023/12/08 09:38:54;;;;;;;34.88;20.40;;;;;;;;;;4981804;28;20062;-58
2023/12/08 09:41:19;;;;;;;32.17;17.65;;;;;;;;;;4981297;28;20039;-58
2023/12/08 09:43:59;;;;;;;32.15;19.55;;;;;;;;;;4981228;28;20050;-58
2023/12/08 09:46:25;;;;;;;33.97;19.63;;;;;;;;;;4981451;28;20458;-58
2023/12/08 09:48:55;;;;;;;36.63;19.50;;;;;;;;;;4981051;28;20035;-58
2023/12/08 09:51:21;;;;;;;39.53;20.27;;;;;;;;;;4981397;28;20027;-58
2023/12/08 09:53:47;;;;;;;34.85;20.27;;;;;;;;;;4981412;28;20106;-58
2023/12/08 09:56:13;;;;;;;40.72;21.58;;;;;;;;;;4981096;28;20469;-58
2023/12/08 09:58:39;;;;;;;41.38;20.38;;;;;;;;;;4981050;28;20027;-58
2023/12/08 10:01:05;;;;;;;43.58;23.25;;;;;;;;;;4981148;28;20046;-58
2023/12/08 10:03:31;;;;;;;35.63;19.67;;;;;;;;;;4981079;28;20025;-58
2023/12/08 10:05:57;;;;;;;41.35;19.90;;;;;;;;;;4981303;28;20055;-58
2023/12/08 10:08:24;;;;;;;39.60;20.98;;;;;;;;;;4980366;28;20058;-58
2023/12/08 10:10:49;;;;;;;37.17;19.58;;;;;;;;;;4981191;28;20035;-58
2023/12/08 10:13:15;;;;;;;32.15;15.75;;;;;;;;;;4981303;28;20074;-58
2023/12/08 10:15:41;;;;;;;33.38;18.48;;;;;;;;;;4981180;28;20473;-58
2023/12/08 10:18:07;;;;;;;38.25;19.13;;;;;;;;;;4980973;28;20445;-58
2023/12/08 10:20:32;;;;;;;37.30;18.83;;;;;;;;;;5022312;23;20087;-61
2023/12/08 10:23:22;;;;;;;31.38;16.58;;;;;;;;;;5012131;22;20058;-58
2023/12/08 10:25:48;;;;;;;31.70;17.92;;;;;;;;;;4979727;28;20049;-61
2023/12/08 10:28:13;;;;;;;33.45;18.23;;;;;;;;;;4979621;28;20041;-62
2023/12/08 10:30:44;;;;;;;31.23;17.67;;;;;;;;;;4980771;28;20377;-62
2023/12/08 10:33:18;;;;;;;35.10;19.23;;;;;;;;;;4980837;28;20086;-62
2023/12/08 10:35:43;;;;;;;35.75;19.20;;;;;;;;;;4981054;28;20556;-62
2023/12/08 10:38:09;;;;;;;33.35;18.75;;;;;;;;;;4979568;28;20106;-62
2023/12/08 10:40:34;;;;;;;36.47;20.33;;;;;;;;;;4980747;28;20035;-62
2023/12/08 10:43:00;;;;;;;36.72;20.38;;;;;;;;;;4980701;28;20035;-62
2023/12/08 10:45:25;;;;;;;36.80;20.00;;;;;;;;;;4981275;28;20066;-62
2023/12/08 10:47:51;;;;;;;39.05;21.48;;;;;;;;;;4978875;28;20086;-63
2023/12/08 10:50:17;;;;;;;39.13;21.38;;;;;;;;;;4977436;28;20116;-62
2023/12/08 10:52:42;;;;;;;34.35;19.20;;;;;;;;;;4977895;28;20114;-62
2023/12/08 10:55:08;;;;;;;33.70;20.05;;;;;;;;;;4977557;28;20035;-62
2023/12/08 10:57:34;;;;;;;34.35;19.17;;;;;;;;;;4976442;28;20101;-62
2023/12/08 11:00:08;;;;;;;36.55;19.17;;;;;;;;;;4976362;28;20492;-62
2023/12/08 11:02:34;;;;;;;29.45;16.88;;;;;;;;;;4977449;28;20038;-63
2023/12/08 11:05:01;;;;;;;31.38;17.90;;;;;;;;;;4977424;28;20035;-63
2023/12/08 11:07:30;;;;;;;36.28;19.27;;;;;;;;;;4977337;28;20121;-63
2023/12/08 11:09:57;;;;;;;40.03;21.17;;;;;;;;;;4977232;28;20063;-63
2023/12/08 11:12:24;;;;;;;43.15;21.15;;;;;;;;;;4976026;28;20026;-63
2023/12/08 11:14:53;;;;;;;176.98;139.00;;;;;;;;;;4977505;28;20035;-63
2023/12/08 11:17:22;;;;;;;36.87;23.47;;;;;;;;;;4977481;28;20035;-63
2023/12/08 11:19:48;;;;;;;38.45;22.52;;;;;;;;;;4977419;28;20035;-63
2023/12/08 11:22:14;;;;;;;34.58;21.30;;;;;;;;;;4959771;28;20030;-63
2023/12/08 11:24:40;;;;;;;33.53;17.98;;;;;;;;;;4987411;28;20137;-63
2023/12/08 11:27:09;;;;;;;31.23;18.23;;;;;;;;;;4996703;28;20046;-63
2023/12/08 11:29:49;;;;;;;34.20;19.15;;;;;;;;;;4996625;28;20036;-63
2023/12/08 11:32:19;;;;;;;36.03;19.38;;;;;;;;;;4996649;28;20038;-63
2023/12/08 11:34:59;;;;;;;35.35;19.67;;;;;;;;;;4996535;28;20073;-63
2023/12/08 11:37:28;;;;;;;34.42;19.88;;;;;;;;;;4996556;28;20103;-63
2023/12/08 11:39:59;;;;;;;34.97;19.70;;;;;;;;;;4996211;28;20109;-63
2023/12/08 11:42:24;;;;;;;;;;;;;;;;;;4996924;28;20038;-63
2023/12/08 11:44:49;;;;;;;38.67;19.95;;;;;;;;;;4996386;28;19914;-63
2023/12/08 11:47:24;;;;;;;38.95;20.23;;;;;;;;;;4996063;28;20023;-62
2023/12/08 11:49:49;;;;;;;42.40;22.00;;;;;;;;;;4996484;28;20026;-63
2023/12/08 11:52:15;;;;;;;41.80;21.70;;;;;;;;;;4995976;28;20461;-63
2023/12/08 11:55:15;;;;;;;39.30;21.23;;;;;;;;;;4995902;28;20066;-63
2023/12/08 11:57:46;;;;;;;40.40;23.05;;;;;;;;;;4954495;28;20042;-63
2023/12/08 12:00:16;;;;;;;37.95;22.27;;;;;;;;;;5014304;23;20050;-62
2023/12/08 12:02:42;;;;;;;36.92;21.50;;;;;;;;;;5010921;28;20026;-62
2023/12/08 12:05:08;;;;;;;45.03;25.85;;;;;;;;;;4995726;28;20134;-62
2023/12/08 12:07:34;;;;;;;38.72;22.35;;;;;;;;;;4995683;28;20075;-62
2023/12/08 12:10:02;;;;;;;47.72;25.60;;;;;;;;;;4996118;28;20022;-62
2023/12/08 12:12:30;;;;;;;49.95;27.75;;;;;;;;;;4995787;28;20462;-62
2023/12/08 12:14:56;;;;;;;52.50;31.90;;;;;;;;;;4995697;28;20036;-62
2023/12/08 12:17:22;;;;;;;51.08;31.30;;;;;;;;;;4995771;28;20030;-63
2023/12/08 12:19:48;;;;;;;48.58;24.83;;;;;;;;;;4995587;28;20034;-63
2023/12/08 12:22:14;;;;;;;36.40;22.20;;;;;;;;;;4995566;28;20031;-63
2023/12/08 12:24:40;;;;;;;45.70;23.60;;;;;;;;;;4995756;28;20046;-63
2023/12/08 12:27:05;;;;;;;49.70;26.27;;;;;;;;;;4995446;28;20033;-62
2023/12/08 12:29:31;;;;;;;61.28;34.15;;;;;;;;;;4995469;28;20026;-62
2023/12/08 12:31:56;;;;;;;84.60;52.78;;;;;;;;;;4995092;28;20461;-62
2023/12/08 12:34:21;;;;;;;71.32;38.42;;;;;;;;;;4995683;28;20089;-62
2023/12/08 12:36:47;;;;;;;118.63;73.40;;;;;;;;;;4995042;28;20030;-63
2023/12/08 12:39:12;;;;;;;57.40;34.92;;;;;;;;;;4995453;28;20076;-63
2023/12/08 12:41:37;;;;;;;60.75;29.80;;;;;;;;;;4994976;28;20041;-62
2023/12/08 12:44:04;;;;;;;57.03;29.13;;;;;;;;;;4995365;28;20476;-62
2023/12/08 12:46:29;;;;;;;62.05;31.70;;;;;;;;;;4995208;28;20093;-62
2023/12/08 12:48:55;;;;;;;65.88;34.03;;;;;;;;;;4995167;28;20091;-62
2023/12/08 12:51:32;;;;;;;61.88;31.17;;;;;;;;;;4993493;28;20034;-63
2023/12/08 12:53:58;;;;;;;69.47;33.33;;;;;;;;;;4995054;28;20090;-63
2023/12/08 12:56:23;;;;;;;72.72;34.65;;;;;;;;;;4995075;28;20034;-63
2023/12/08 12:59:10;;;;;;;69.20;36.20;;;;;;;;;;4994705;28;20483;-63
2023/12/08 13:01:36;;;;;;;74.85;36.25;;;;;;;;;;4994890;28;20054;-63
2023/12/08 13:04:03;;;;;;;76.07;38.17;;;;;;;;;;4994792;28;20031;-63
2023/12/08 13:06:29;;;;;;;70.07;36.38;;;;;;;;;;4994865;28;20512;-63
2023/12/08 13:08:56;;;;;;;67.30;33.35;;;;;;;;;;4994588;28;20030;-63
2023/12/08 13:11:21;;;;;;;62.78;32.00;;;;;;;;;;4992553;28;20056;-63
2023/12/08 13:13:47;;;;;;;70.10;33.72;;;;;;;;;;4994615;28;20041;-63
2023/12/08 13:16:13;;;;;;;65.40;32.42;;;;;;;;;;4995029;28;20419;-63
2023/12/08 13:18:48;;;;;;;68.18;33.63;;;;;;;;;;4994304;28;20065;-62
2023/12/08 13:21:15;;;;;;;56.10;28.83;;;;;;;;;;4993466;28;20421;-62
2023/12/08 13:23:41;;;;;;;70.07;33.92;;;;;;;;;;4994511;28;20042;-62
2023/12/08 13:26:06;;;;;;;60.65;30.67;;;;;;;;;;4994133;28;20033;-62
2023/12/08 13:28:32;;;;;;;53.38;27.23;;;;;;;;;;4993811;28;20038;-58
2023/12/08 13:30:58;;;;;;;58.17;30.63;;;;;;;;;;4991127;28;20072;-58
2023/12/08 13:33:24;;;;;;;64.88;30.90;;;;;;;;;;4992008;28;20449;-58
2023/12/08 13:35:49;;;;;;;61.75;30.88;;;;;;;;;;4992253;28;20019;-58
2023/12/08 13:38:15;;;;;;;65.60;31.42;;;;;;;;;;4993652;28;20037;-58
2023/12/08 13:40:40;;;;;;;67.63;33.00;;;;;;;;;;4994134;28;20049;-58
2023/12/08 13:43:06;;;;;;;60.65;29.85;;;;;;;;;;4994182;28;20044;-58
2023/12/08 13:45:32;;;;;;;59.55;30.00;;;;;;;;;;4993933;28;20109;-58
2023/12/08 13:47:57;;;;;;;57.53;28.50;;;;;;;;;;4994232;28;20038;-58
2023/12/08 13:50:23;;;;;;;58.88;30.15;;;;;;;;;;4994099;28;20026;-58
2023/12/08 13:52:48;;;;;;;65.93;33.60;;;;;;;;;;4994139;28;20038;-56
2023/12/08 13:55:14;;;;;;;76.10;39.65;;;;;;;;;;4994274;28;20528;-55
2023/12/08 13:57:39;;;;;;;77.03;40.42;;;;;;;;;;4993377;28;20030;-55
2023/12/08 14:00:05;;;;;;;115.55;66.70;;;;;;;;;;4993484;28;20034;-56
2023/12/08 14:02:31;;;;;;;89.07;47.13;;;;;;;;;;4976319;28;20054;-55
2023/12/08 14:04:56;;;;;;;95.15;63.53;;;;;;;;;;4993962;28;20077;-55
2023/12/08 14:07:22;;;;;;;148.68;102.50;;;;;;;;;;4994690;28;20069;-55
2023/12/08 14:09:47;;;;;;;120.70;79.45;;;;;;;;;;4993798;28;20432;-56
2023/12/08 14:12:13;;;;;;;148.63;101.45;;;;;;;;;;4992803;28;20058;-56